sensor_id;sensor_type;location;lat;lon;timestamp;P1;durP1;ratioP1;P2;durP2;ratioP2
27424;SDS011;15244;49.088;11.886;2023-04-15T00:03:36;5.57;;;5.18;;
27424;SDS011;15244;49.088;11.886;2023-04-15T00:08:58;5.07;;;4.78;;
27424;SDS011;15244;49.088;11.886;2023-04-15T00:14:13;5.07;;;4.70;;
27424;SDS011;15244;49.088;11.886;2023-04-15T00:19:42;4.40;;;4.15;;
27424;SDS011;15244;49.088;11.886;2023-04-15T00:24:58;5.00;;;4.70;;
27424;SDS011;15244;49.088;11.886;2023-04-15T00:30:27;5.18;;;4.88;;
27424;SDS011;15244;49.088;11.886;2023-04-15T00:35:56;5.07;;;4.78;;
27424;SDS011;15244;49.088;11.886;2023-04-15T00:41:13;5.40;;;5.00;;
27424;SDS011;15244;49.088;11.886;2023-04-15T00:46:41;5.88;;;5.45;;
27424;SDS011;15244;49.088;11.886;2023-04-15T00:51:58;6.15;;;5.65;;
27424;SDS011;15244;49.088;11.886;2023-04-15T00:57:27;5.85;;;5.55;;
27424;SDS011;15244;49.088;11.886;2023-04-15T01:02:42;6.22;;;5.82;;
27424;SDS011;15244;49.088;11.886;2023-04-15T01:08:11;5.70;;;5.30;;
27424;SDS011;15244;49.088;11.886;2023-04-15T01:13:26;7.22;;;5.75;;
27424;SDS011;15244;49.088;11.886;2023-04-15T01:18:55;6.63;;;5.78;;
27424;SDS011;15244;49.088;11.886;2023-04-15T01:24:11;6.07;;;5.68;;
27424;SDS011;15244;49.088;11.886;2023-04-15T01:29:40;7.03;;;6.40;;
27424;SDS011;15244;49.088;11.886;2023-04-15T01:35:11;7.00;;;6.10;;
27424;SDS011;15244;49.088;11.886;2023-04-15T01:40:26;5.93;;;5.43;;
27424;SDS011;15244;49.088;11.886;2023-04-15T01:45:55;6.82;;;6.22;;
27424;SDS011;15244;49.088;11.886;2023-04-15T01:51:10;5.80;;;5.30;;
27424;SDS011;15244;49.088;11.886;2023-04-15T01:56:39;6.57;;;6.07;;
27424;SDS011;15244;49.088;11.886;2023-04-15T02:01:54;6.28;;;5.88;;
27424;SDS011;15244;49.088;11.886;2023-04-15T02:07:23;5.95;;;5.45;;
27424;SDS011;15244;49.088;11.886;2023-04-15T02:12:38;6.22;;;5.75;;
27424;SDS011;15244;49.088;11.886;2023-04-15T02:18:08;6.03;;;5.63;;
27424;SDS011;15244;49.088;11.886;2023-04-15T02:23:23;5.00;;;4.68;;
27424;SDS011;15244;49.088;11.886;2023-04-15T02:28:53;5.20;;;4.90;;
27424;SDS011;15244;49.088;11.886;2023-04-15T02:34:08;5.72;;;5.32;;
27424;SDS011;15244;49.088;11.886;2023-04-15T02:39:37;5.75;;;5.25;;
27424;SDS011;15244;49.088;11.886;2023-04-15T02:44:53;5.15;;;4.70;;
27424;SDS011;15244;49.088;11.886;2023-04-15T02:50:22;5.93;;;5.50;;
27424;SDS011;15244;49.088;11.886;2023-04-15T02:55:39;5.30;;;4.90;;
27424;SDS011;15244;49.088;11.886;2023-04-15T03:01:07;5.32;;;4.82;;
27424;SDS011;15244;49.088;11.886;2023-04-15T03:06:22;5.55;;;5.15;;
27424;SDS011;15244;49.088;11.886;2023-04-15T03:11:51;5.28;;;4.97;;
27424;SDS011;15244;49.088;11.886;2023-04-15T03:17:08;5.13;;;4.82;;
27424;SDS011;15244;49.088;11.886;2023-04-15T03:22:36;5.53;;;5.22;;
27424;SDS011;15244;49.088;11.886;2023-04-15T03:27:53;5.80;;;5.25;;
27424;SDS011;15244;49.088;11.886;2023-04-15T03:33:22;6.18;;;5.57;;
27424;SDS011;15244;49.088;11.886;2023-04-15T03:38:37;5.80;;;5.50;;
27424;SDS011;15244;49.088;11.886;2023-04-15T03:44:06;6.82;;;6.22;;
27424;SDS011;15244;49.088;11.886;2023-04-15T03:49:21;6.35;;;5.95;;
27424;SDS011;15244;49.088;11.886;2023-04-15T03:54:50;7.18;;;6.65;;
27424;SDS011;15244;49.088;11.886;2023-04-15T04:00:06;7.00;;;6.47;;
27424;SDS011;15244;49.088;11.886;2023-04-15T04:05:36;7.85;;;7.15;;
27424;SDS011;15244;49.088;11.886;2023-04-15T04:10:52;7.63;;;7.03;;
27424;SDS011;15244;49.088;11.886;2023-04-15T04:16:21;7.93;;;7.13;;
27424;SDS011;15244;49.088;11.886;2023-04-15T04:21:36;8.10;;;7.30;;
27424;SDS011;15244;49.088;11.886;2023-04-15T04:27:05;8.05;;;7.30;;
27424;SDS011;15244;49.088;11.886;2023-04-15T04:32:35;7.35;;;6.63;;
27424;SDS011;15244;49.088;11.886;2023-04-15T04:38:04;7.00;;;6.43;;
27424;SDS011;15244;49.088;11.886;2023-04-15T04:43:19;7.22;;;6.50;;
27424;SDS011;15244;49.088;11.886;2023-04-15T04:48:48;7.20;;;6.65;;
27424;SDS011;15244;49.088;11.886;2023-04-15T04:54:03;6.93;;;6.43;;
27424;SDS011;15244;49.088;11.886;2023-04-15T04:59:32;7.20;;;6.60;;
27424;SDS011;15244;49.088;11.886;2023-04-15T05:04:47;7.30;;;6.60;;
27424;SDS011;15244;49.088;11.886;2023-04-15T05:10:16;7.60;;;6.95;;
27424;SDS011;15244;49.088;11.886;2023-04-15T05:15:31;9.43;;;8.05;;
27424;SDS011;15244;49.088;11.886;2023-04-15T05:21:01;8.27;;;7.57;;
27424;SDS011;15244;49.088;11.886;2023-04-15T05:26:16;7.78;;;7.18;;
27424;SDS011;15244;49.088;11.886;2023-04-15T05:31:45;8.00;;;7.10;;
27424;SDS011;15244;49.088;11.886;2023-04-15T05:37:14;6.40;;;5.90;;
27424;SDS011;15244;49.088;11.886;2023-04-15T05:42:29;6.97;;;6.47;;
27424;SDS011;15244;49.088;11.886;2023-04-15T05:47:58;6.00;;;5.60;;
27424;SDS011;15244;49.088;11.886;2023-04-15T05:53:13;5.82;;;5.22;;
27424;SDS011;15244;49.088;11.886;2023-04-15T05:58:42;6.10;;;5.68;;
27424;SDS011;15244;49.088;11.886;2023-04-15T06:04:00;5.10;;;4.70;;
27424;SDS011;15244;49.088;11.886;2023-04-15T06:09:29;4.13;;;3.85;;
27424;SDS011;15244;49.088;11.886;2023-04-15T06:14:44;4.30;;;4.10;;
27424;SDS011;15244;49.088;11.886;2023-04-15T06:20:13;3.90;;;3.70;;
27424;SDS011;15244;49.088;11.886;2023-04-15T06:25:28;4.43;;;4.13;;
27424;SDS011;15244;49.088;11.886;2023-04-15T06:30:57;4.63;;;4.32;;
27424;SDS011;15244;49.088;11.886;2023-04-15T06:36:12;4.20;;;3.90;;
27424;SDS011;15244;49.088;11.886;2023-04-15T06:41:41;4.40;;;4.10;;
27424;SDS011;15244;49.088;11.886;2023-04-15T06:46:56;3.63;;;3.38;;
27424;SDS011;15244;49.088;11.886;2023-04-15T06:52:25;3.90;;;3.50;;
27424;SDS011;15244;49.088;11.886;2023-04-15T06:57:40;3.78;;;3.58;;
27424;SDS011;15244;49.088;11.886;2023-04-15T07:03:10;3.28;;;3.08;;
27424;SDS011;15244;49.088;11.886;2023-04-15T07:08:26;3.75;;;3.45;;
27424;SDS011;15244;49.088;11.886;2023-04-15T07:13:56;3.85;;;3.55;;
27424;SDS011;15244;49.088;11.886;2023-04-15T07:19:11;3.80;;;3.60;;
27424;SDS011;15244;49.088;11.886;2023-04-15T07:24:40;4.38;;;4.00;;
27424;SDS011;15244;49.088;11.886;2023-04-15T07:29:55;3.90;;;3.63;;
27424;SDS011;15244;49.088;11.886;2023-04-15T07:35:24;4.10;;;3.88;;
27424;SDS011;15244;49.088;11.886;2023-04-15T07:40:39;3.92;;;3.63;;
27424;SDS011;15244;49.088;11.886;2023-04-15T07:46:08;3.65;;;3.45;;
27424;SDS011;15244;49.088;11.886;2023-04-15T07:51:23;3.42;;;3.22;;
27424;SDS011;15244;49.088;11.886;2023-04-15T07:56:52;3.22;;;3.03;;
27424;SDS011;15244;49.088;11.886;2023-04-15T08:02:08;3.25;;;3.05;;
27424;SDS011;15244;49.088;11.886;2023-04-15T08:07:36;3.85;;;3.63;;
27424;SDS011;15244;49.088;11.886;2023-04-15T08:12:51;3.50;;;2.95;;
27424;SDS011;15244;49.088;11.886;2023-04-15T08:18:21;2.70;;;2.50;;
27424;SDS011;15244;49.088;11.886;2023-04-15T08:23:36;2.60;;;2.40;;
27424;SDS011;15244;49.088;11.886;2023-04-15T08:29:05;2.20;;;2.10;;
27424;SDS011;15244;49.088;11.886;2023-04-15T08:34:20;2.10;;;2.00;;
27424;SDS011;15244;49.088;11.886;2023-04-15T08:39:49;2.20;;;2.00;;
27424;SDS011;15244;49.088;11.886;2023-04-15T08:45:04;2.42;;;2.22;;
27424;SDS011;15244;49.088;11.886;2023-04-15T08:50:36;2.17;;;1.75;;
27424;SDS011;15244;49.088;11.886;2023-04-15T08:55:51;1.75;;;1.60;;
27424;SDS011;15244;49.088;11.886;2023-04-15T09:01:24;1.85;;;1.75;;
27424;SDS011;15244;49.088;11.886;2023-04-15T09:06:40;1.52;;;1.42;;
27424;SDS011;15244;49.088;11.886;2023-04-15T09:12:10;1.83;;;1.73;;
27424;SDS011;15244;49.088;11.886;2023-04-15T09:17:25;1.98;;;1.88;;
27424;SDS011;15244;49.088;11.886;2023-04-15T09:22:54;1.95;;;1.85;;
27424;SDS011;15244;49.088;11.886;2023-04-15T09:28:09;2.08;;;1.92;;
27424;SDS011;15244;49.088;11.886;2023-04-15T09:33:52;1.92;;;1.83;;
27424;SDS011;15244;49.088;11.886;2023-04-15T09:39:10;2.17;;;2.08;;
27424;SDS011;15244;49.088;11.886;2023-04-15T09:44:39;2.10;;;2.00;;
27424;SDS011;15244;49.088;11.886;2023-04-15T09:49:55;2.10;;;1.80;;
27424;SDS011;15244;49.088;11.886;2023-04-15T09:55:24;1.80;;;1.70;;
27424;SDS011;15244;49.088;11.886;2023-04-15T10:00:39;2.20;;;1.60;;
27424;SDS011;15244;49.088;11.886;2023-04-15T10:06:08;1.55;;;1.48;;
27424;SDS011;15244;49.088;11.886;2023-04-15T10:11:26;1.38;;;1.30;;
27424;SDS011;15244;49.088;11.886;2023-04-15T10:16:56;1.30;;;1.23;;
27424;SDS011;15244;49.088;11.886;2023-04-15T10:22:14;1.20;;;1.20;;
27424;SDS011;15244;49.088;11.886;2023-04-15T10:27:44;1.08;;;1.08;;
27424;SDS011;15244;49.088;11.886;2023-04-15T10:33:02;1.05;;;1.05;;
27424;SDS011;15244;49.088;11.886;2023-04-15T10:38:42;1.05;;;1.05;;
27424;SDS011;15244;49.088;11.886;2023-04-15T10:49:28;1.17;;;1.15;;
27424;SDS011;15244;49.088;11.886;2023-04-15T10:54:43;1.20;;;1.10;;
27424;SDS011;15244;49.088;11.886;2023-04-15T11:00:16;0.95;;;0.95;;
27424;SDS011;15244;49.088;11.886;2023-04-15T11:11:09;1.75;;;0.98;;
27424;SDS011;15244;49.088;11.886;2023-04-15T11:16:24;0.80;;;0.80;;
27424;SDS011;15244;49.088;11.886;2023-04-15T11:21:53;0.88;;;0.88;;
27424;SDS011;15244;49.088;11.886;2023-04-15T11:27:08;0.90;;;0.90;;
27424;SDS011;15244;49.088;11.886;2023-04-15T11:32:40;0.75;;;0.75;;
27424;SDS011;15244;49.088;11.886;2023-04-15T11:37:55;1.00;;;1.00;;
27424;SDS011;15244;49.088;11.886;2023-04-15T11:43:24;0.70;;;0.70;;
27424;SDS011;15244;49.088;11.886;2023-04-15T11:48:44;1.00;;;1.00;;
27424;SDS011;15244;49.088;11.886;2023-04-15T11:54:17;0.70;;;0.70;;
27424;SDS011;15244;49.088;11.886;2023-04-15T11:59:42;0.77;;;0.70;;
27424;SDS011;15244;49.088;11.886;2023-04-15T12:05:12;0.90;;;0.70;;
27424;SDS011;15244;49.088;11.886;2023-04-15T12:10:30;0.88;;;0.60;;
27424;SDS011;15244;49.088;11.886;2023-04-15T12:15:59;0.75;;;0.75;;
27424;SDS011;15244;49.088;11.886;2023-04-15T12:21:14;0.95;;;0.88;;
27424;SDS011;15244;49.088;11.886;2023-04-15T12:32:10;0.82;;;0.82;;
27424;SDS011;15244;49.088;11.886;2023-04-15T12:37:43;0.60;;;0.60;;
27424;SDS011;15244;49.088;11.886;2023-04-15T12:42:58;0.95;;;0.95;;
27424;SDS011;15244;49.088;11.886;2023-04-15T12:48:27;1.08;;;1.08;;
27424;SDS011;15244;49.088;11.886;2023-04-15T12:53:42;1.00;;;1.00;;
27424;SDS011;15244;49.088;11.886;2023-04-15T12:59:11;1.25;;;1.15;;
27424;SDS011;15244;49.088;11.886;2023-04-15T13:04:26;1.30;;;1.20;;
27424;SDS011;15244;49.088;11.886;2023-04-15T13:09:55;1.08;;;1.08;;
27424;SDS011;15244;49.088;11.886;2023-04-15T13:15:10;1.02;;;1.02;;
27424;SDS011;15244;49.088;11.886;2023-04-15T13:20:41;1.40;;;1.30;;
27424;SDS011;15244;49.088;11.886;2023-04-15T13:25:56;1.92;;;1.20;;
27424;SDS011;15244;49.088;11.886;2023-04-15T13:31:25;0.77;;;0.77;;
27424;SDS011;15244;49.088;11.886;2023-04-15T13:36:54;1.20;;;1.20;;
27424;SDS011;15244;49.088;11.886;2023-04-15T13:42:09;1.40;;;1.40;;
27424;SDS011;15244;49.088;11.886;2023-04-15T13:47:39;1.65;;;1.55;;
27424;SDS011;15244;49.088;11.886;2023-04-15T13:52:53;2.63;;;1.48;;
27424;SDS011;15244;49.088;11.886;2023-04-15T13:58:22;1.42;;;1.35;;
27424;SDS011;15244;49.088;11.886;2023-04-15T14:03:37;1.52;;;1.50;;
27424;SDS011;15244;49.088;11.886;2023-04-15T14:09:06;2.08;;;1.98;;
27424;SDS011;15244;49.088;11.886;2023-04-15T14:14:21;2.38;;;2.17;;
27424;SDS011;15244;49.088;11.886;2023-04-15T14:19:50;1.98;;;1.75;;
27424;SDS011;15244;49.088;11.886;2023-04-15T14:25:05;2.45;;;2.35;;
27424;SDS011;15244;49.088;11.886;2023-04-15T14:30:47;2.38;;;2.28;;
27424;SDS011;15244;49.088;11.886;2023-04-15T14:36:02;3.17;;;2.97;;
27424;SDS011;15244;49.088;11.886;2023-04-15T14:41:31;3.15;;;2.95;;
27424;SDS011;15244;49.088;11.886;2023-04-15T14:46:46;3.20;;;3.00;;
27424;SDS011;15244;49.088;11.886;2023-04-15T14:52:16;3.20;;;3.00;;
27424;SDS011;15244;49.088;11.886;2023-04-15T14:57:31;3.25;;;3.05;;
27424;SDS011;15244;49.088;11.886;2023-04-15T15:03:00;3.03;;;2.83;;
27424;SDS011;15244;49.088;11.886;2023-04-15T15:08:15;2.97;;;2.78;;
27424;SDS011;15244;49.088;11.886;2023-04-15T15:13:44;2.58;;;2.47;;
27424;SDS011;15244;49.088;11.886;2023-04-15T15:18:59;2.47;;;2.35;;
27424;SDS011;15244;49.088;11.886;2023-04-15T15:24:28;2.28;;;2.17;;
27424;SDS011;15244;49.088;11.886;2023-04-15T15:29:43;2.45;;;2.35;;
27424;SDS011;15244;49.088;11.886;2023-04-15T15:35:12;2.83;;;2.63;;
27424;SDS011;15244;49.088;11.886;2023-04-15T15:40:27;2.78;;;2.63;;
27424;SDS011;15244;49.088;11.886;2023-04-15T15:45:56;2.53;;;2.42;;
27424;SDS011;15244;49.088;11.886;2023-04-15T15:51:11;2.35;;;2.25;;
27424;SDS011;15244;49.088;11.886;2023-04-15T15:56:40;2.42;;;2.33;;
27424;SDS011;15244;49.088;11.886;2023-04-15T16:01:55;2.95;;;2.75;;
27424;SDS011;15244;49.088;11.886;2023-04-15T16:07:24;3.05;;;2.85;;
27424;SDS011;15244;49.088;11.886;2023-04-15T16:12:39;2.38;;;2.28;;
27424;SDS011;15244;49.088;11.886;2023-04-15T16:18:08;3.25;;;2.95;;
27424;SDS011;15244;49.088;11.886;2023-04-15T16:23:23;2.47;;;2.33;;
27424;SDS011;15244;49.088;11.886;2023-04-15T16:28:52;2.42;;;2.33;;
27424;SDS011;15244;49.088;11.886;2023-04-15T16:34:07;2.60;;;2.40;;
27424;SDS011;15244;49.088;11.886;2023-04-15T16:39:36;2.47;;;2.38;;
27424;SDS011;15244;49.088;11.886;2023-04-15T16:44:51;2.80;;;2.65;;
27424;SDS011;15244;49.088;11.886;2023-04-15T16:50:20;3.20;;;3.00;;
27424;SDS011;15244;49.088;11.886;2023-04-15T16:55:35;3.22;;;2.53;;
27424;SDS011;15244;49.088;11.886;2023-04-15T17:01:04;3.20;;;3.00;;
27424;SDS011;15244;49.088;11.886;2023-04-15T17:06:19;2.92;;;2.83;;
27424;SDS011;15244;49.088;11.886;2023-04-15T17:11:48;2.97;;;2.78;;
27424;SDS011;15244;49.088;11.886;2023-04-15T17:17:04;3.10;;;2.90;;
27424;SDS011;15244;49.088;11.886;2023-04-15T17:22:33;3.45;;;3.17;;
27424;SDS011;15244;49.088;11.886;2023-04-15T17:27:48;3.85;;;2.90;;
27424;SDS011;15244;49.088;11.886;2023-04-15T17:33:17;3.15;;;2.95;;
27424;SDS011;15244;49.088;11.886;2023-04-15T17:39:06;2.90;;;2.80;;
27424;SDS011;15244;49.088;11.886;2023-04-15T17:44:21;3.03;;;2.83;;
27424;SDS011;15244;49.088;11.886;2023-04-15T17:49:50;3.45;;;2.85;;
27424;SDS011;15244;49.088;11.886;2023-04-15T17:55:05;2.95;;;2.75;;
27424;SDS011;15244;49.088;11.886;2023-04-15T18:00:35;2.90;;;2.80;;
27424;SDS011;15244;49.088;11.886;2023-04-15T18:05:50;2.63;;;2.53;;
27424;SDS011;15244;49.088;11.886;2023-04-15T18:11:19;3.17;;;2.97;;
27424;SDS011;15244;49.088;11.886;2023-04-15T18:16:34;3.38;;;3.00;;
27424;SDS011;15244;49.088;11.886;2023-04-15T18:22:05;2.90;;;2.70;;
27424;SDS011;15244;49.088;11.886;2023-04-15T18:27:20;2.70;;;2.60;;
27424;SDS011;15244;49.088;11.886;2023-04-15T18:32:49;3.40;;;3.20;;
27424;SDS011;15244;49.088;11.886;2023-04-15T18:38:04;3.22;;;3.03;;
27424;SDS011;15244;49.088;11.886;2023-04-15T18:43:33;2.85;;;2.75;;
27424;SDS011;15244;49.088;11.886;2023-04-15T18:48:48;3.50;;;3.22;;
27424;SDS011;15244;49.088;11.886;2023-04-15T18:54:17;3.40;;;3.20;;
27424;SDS011;15244;49.088;11.886;2023-04-15T18:59:32;3.28;;;3.08;;
27424;SDS011;15244;49.088;11.886;2023-04-15T19:05:01;3.17;;;2.97;;
27424;SDS011;15244;49.088;11.886;2023-04-15T19:10:17;3.38;;;3.17;;
27424;SDS011;15244;49.088;11.886;2023-04-15T19:15:46;3.78;;;3.47;;
27424;SDS011;15244;49.088;11.886;2023-04-15T19:21:01;3.08;;;2.88;;
27424;SDS011;15244;49.088;11.886;2023-04-15T19:26:30;3.67;;;3.47;;
27424;SDS011;15244;49.088;11.886;2023-04-15T19:31:45;3.33;;;3.13;;
27424;SDS011;15244;49.088;11.886;2023-04-15T19:37:14;3.38;;;3.13;;
27424;SDS011;15244;49.088;11.886;2023-04-15T19:42:29;4.32;;;3.13;;
27424;SDS011;15244;49.088;11.886;2023-04-15T19:47:58;5.03;;;3.58;;
27424;SDS011;15244;49.088;11.886;2023-04-15T19:53:13;3.45;;;3.25;;
27424;SDS011;15244;49.088;11.886;2023-04-15T19:58:42;3.63;;;3.40;;
27424;SDS011;15244;49.088;11.886;2023-04-15T20:04:00;3.50;;;3.20;;
27424;SDS011;15244;49.088;11.886;2023-04-15T20:09:29;3.22;;;3.05;;
27424;SDS011;15244;49.088;11.886;2023-04-15T20:14:44;3.90;;;3.58;;
27424;SDS011;15244;49.088;11.886;2023-04-15T20:20:13;3.72;;;3.47;;
27424;SDS011;15244;49.088;11.886;2023-04-15T20:25:28;3.97;;;3.67;;
27424;SDS011;15244;49.088;11.886;2023-04-15T20:30:58;3.85;;;3.65;;
27424;SDS011;15244;49.088;11.886;2023-04-15T20:36:14;3.70;;;3.40;;
27424;SDS011;15244;49.088;11.886;2023-04-15T20:41:43;4.18;;;3.88;;
27424;SDS011;15244;49.088;11.886;2023-04-15T20:46:58;3.38;;;3.20;;
27424;SDS011;15244;49.088;11.886;2023-04-15T20:52:27;3.72;;;3.53;;
27424;SDS011;15244;49.088;11.886;2023-04-15T20:57:42;3.40;;;3.20;;
27424;SDS011;15244;49.088;11.886;2023-04-15T21:03:11;4.30;;;4.00;;
27424;SDS011;15244;49.088;11.886;2023-04-15T21:08:26;4.30;;;4.00;;
27424;SDS011;15244;49.088;11.886;2023-04-15T21:13:55;2.95;;;2.85;;
27424;SDS011;15244;49.088;11.886;2023-04-15T21:19:10;3.38;;;3.17;;
27424;SDS011;15244;49.088;11.886;2023-04-15T21:24:39;3.50;;;3.20;;
27424;SDS011;15244;49.088;11.886;2023-04-15T21:29:54;3.70;;;3.50;;
27424;SDS011;15244;49.088;11.886;2023-04-15T21:35:23;3.63;;;3.42;;
27424;SDS011;15244;49.088;11.886;2023-04-15T21:40:38;3.78;;;3.58;;
27424;SDS011;15244;49.088;11.886;2023-04-15T21:46:07;4.00;;;3.65;;
27424;SDS011;15244;49.088;11.886;2023-04-15T21:51:31;3.70;;;3.50;;
27424;SDS011;15244;49.088;11.886;2023-04-15T21:57:00;4.15;;;3.85;;
27424;SDS011;15244;49.088;11.886;2023-04-15T22:02:15;3.83;;;3.50;;
27424;SDS011;15244;49.088;11.886;2023-04-15T22:07:44;4.50;;;4.20;;
27424;SDS011;15244;49.088;11.886;2023-04-15T22:12:59;3.75;;;3.55;;
27424;SDS011;15244;49.088;11.886;2023-04-15T22:18:31;4.43;;;4.13;;
27424;SDS011;15244;49.088;11.886;2023-04-15T22:23:46;4.07;;;3.88;;
27424;SDS011;15244;49.088;11.886;2023-04-15T22:29:36;4.78;;;4.47;;
27424;SDS011;15244;49.088;11.886;2023-04-15T22:34:51;4.78;;;4.47;;
27424;SDS011;15244;49.088;11.886;2023-04-15T22:40:20;4.40;;;4.10;;
27424;SDS011;15244;49.088;11.886;2023-04-15T22:45:35;4.88;;;4.50;;
27424;SDS011;15244;49.088;11.886;2023-04-15T22:51:04;4.65;;;4.25;;
27424;SDS011;15244;49.088;11.886;2023-04-15T22:56:19;5.20;;;4.53;;
27424;SDS011;15244;49.088;11.886;2023-04-15T23:01:49;5.55;;;5.07;;
27424;SDS011;15244;49.088;11.886;2023-04-15T23:07:04;4.93;;;4.60;;
27424;SDS011;15244;49.088;11.886;2023-04-15T23:12:33;5.75;;;5.03;;
27424;SDS011;15244;49.088;11.886;2023-04-15T23:17:48;4.97;;;4.68;;
27424;SDS011;15244;49.088;11.886;2023-04-15T23:23:17;4.88;;;4.40;;
27424;SDS011;15244;49.088;11.886;2023-04-15T23:28:32;5.32;;;4.88;;
27424;SDS011;15244;49.088;11.886;2023-04-15T23:34:01;5.20;;;4.80;;
27424;SDS011;15244;49.088;11.886;2023-04-15T23:39:30;4.57;;;4.18;;
27424;SDS011;15244;49.088;11.886;2023-04-15T23:44:45;4.63;;;4.22;;
27424;SDS011;15244;49.088;11.886;2023-04-15T23:50:14;4.30;;;4.10;;
27424;SDS011;15244;49.088;11.886;2023-04-15T23:55:29;4.75;;;4.45;;
